sensor_id;sensor_type;location;lat;lon;timestamp;pressure;altitude;pressure_sealevel;temperature;humidity
28927;BME280;16038;47.692;9.400;2023-02-01T00:01:17;97444.97;;;2.79;100.00
28927;BME280;16038;47.692;9.400;2023-02-01T00:03:42;97439.44;;;2.84;100.00
28927;BME280;16038;47.692;9.400;2023-02-01T00:06:08;97440.56;;;2.83;100.00
28927;BME280;16038;47.692;9.400;2023-02-01T00:08:33;97451.28;;;2.89;100.00
28927;BME280;16038;47.692;9.400;2023-02-01T00:11:09;97443.66;;;2.77;100.00
28927;BME280;16038;47.692;9.400;2023-02-01T00:13:36;97442.28;;;2.79;100.00
28927;BME280;16038;47.692;9.400;2023-02-01T00:18:30;97435.53;;;2.77;100.00
28927;BME280;16038;47.692;9.400;2023-02-01T00:20:55;97439.66;;;2.74;100.00
28927;BME280;16038;47.692;9.400;2023-02-01T00:23:20;97439.03;;;2.77;100.00
28927;BME280;16038;47.692;9.400;2023-02-01T00:25:46;97439.56;;;2.79;100.00
28927;BME280;16038;47.692;9.400;2023-02-01T00:28:11;97430.63;;;2.79;100.00
28927;BME280;16038;47.692;9.400;2023-02-01T00:30:38;97432.81;;;2.77;100.00
28927;BME280;16038;47.692;9.400;2023-02-01T00:33:03;97426.25;;;2.83;100.00
28927;BME280;16038;47.692;9.400;2023-02-01T00:35:28;97430.53;;;2.84;100.00
28927;BME280;16038;47.692;9.400;2023-02-01T00:37:54;97434.34;;;2.83;100.00
28927;BME280;16038;47.692;9.400;2023-02-01T00:40:19;97423.00;;;2.81;100.00
28927;BME280;16038;47.692;9.400;2023-02-01T00:42:44;97418.72;;;2.80;100.00
28927;BME280;16038;47.692;9.400;2023-02-01T00:45:10;97417.59;;;2.81;100.00
28927;BME280;16038;47.692;9.400;2023-02-01T00:47:35;97420.91;;;2.92;100.00
28927;BME280;16038;47.692;9.400;2023-02-01T00:50:01;97421.03;;;2.86;100.00
28927;BME280;16038;47.692;9.400;2023-02-01T00:52:26;97418.53;;;2.90;100.00
28927;BME280;16038;47.692;9.400;2023-02-01T00:54:51;97410.00;;;2.83;100.00
28927;BME280;16038;47.692;9.400;2023-02-01T00:57:17;97426.75;;;2.85;100.00
28927;BME280;16038;47.692;9.400;2023-02-01T00:59:42;97412.38;;;2.84;100.00
28927;BME280;16038;47.692;9.400;2023-02-01T01:02:07;97412.09;;;2.86;100.00
28927;BME280;16038;47.692;9.400;2023-02-01T01:04:32;97406.28;;;2.79;100.00
28927;BME280;16038;47.692;9.400;2023-02-01T01:06:58;97405.19;;;2.80;100.00
28927;BME280;16038;47.692;9.400;2023-02-01T01:09:23;97411.50;;;2.89;100.00
28927;BME280;16038;47.692;9.400;2023-02-01T01:11:48;97418.63;;;2.85;100.00
28927;BME280;16038;47.692;9.400;2023-02-01T01:14:16;97420.84;;;2.83;100.00
28927;BME280;16038;47.692;9.400;2023-02-01T01:16:41;97416.41;;;2.87;100.00
28927;BME280;16038;47.692;9.400;2023-02-01T01:19:07;97415.84;;;2.90;100.00
28927;BME280;16038;47.692;9.400;2023-02-01T01:21:32;97414.00;;;2.85;100.00
28927;BME280;16038;47.692;9.400;2023-02-01T01:23:57;97406.09;;;2.89;99.75
28927;BME280;16038;47.692;9.400;2023-02-01T01:26:24;97422.13;;;2.85;99.61
28927;BME280;16038;47.692;9.400;2023-02-01T01:28:50;97416.44;;;3.01;98.76
28927;BME280;16038;47.692;9.400;2023-02-01T01:31:16;97407.09;;;2.93;98.22
28927;BME280;16038;47.692;9.400;2023-02-01T01:33:42;97411.22;;;2.91;98.44
28927;BME280;16038;47.692;9.400;2023-02-01T01:36:09;97401.06;;;2.82;98.12
28927;BME280;16038;47.692;9.400;2023-02-01T01:38:40;97403.38;;;2.89;98.58
28927;BME280;16038;47.692;9.400;2023-02-01T01:41:06;97407.59;;;2.81;98.39
28927;BME280;16038;47.692;9.400;2023-02-01T01:43:47;97402.97;;;2.82;99.46
28927;BME280;16038;47.692;9.400;2023-02-01T01:46:17;97404.41;;;2.79;98.30
28927;BME280;16038;47.692;9.400;2023-02-01T01:48:42;97402.19;;;2.81;98.20
28927;BME280;16038;47.692;9.400;2023-02-01T01:51:08;97392.66;;;2.84;98.33
28927;BME280;16038;47.692;9.400;2023-02-01T01:53:37;97395.88;;;2.86;97.76
28927;BME280;16038;47.692;9.400;2023-02-01T01:56:03;97385.75;;;2.78;98.31
28927;BME280;16038;47.692;9.400;2023-02-01T01:58:29;97392.16;;;2.82;97.15
28927;BME280;16038;47.692;9.400;2023-02-01T02:00:57;97378.34;;;2.83;97.70
28927;BME280;16038;47.692;9.400;2023-02-01T02:03:23;97386.25;;;2.80;97.83
28927;BME280;16038;47.692;9.400;2023-02-01T02:05:50;97373.81;;;2.79;97.35
28927;BME280;16038;47.692;9.400;2023-02-01T02:08:18;97369.50;;;2.78;97.55
28927;BME280;16038;47.692;9.400;2023-02-01T02:10:47;97362.50;;;2.77;97.82
28927;BME280;16038;47.692;9.400;2023-02-01T02:13:31;97362.69;;;2.80;97.40
28927;BME280;16038;47.692;9.400;2023-02-01T02:18:42;97358.06;;;2.81;97.48
28927;BME280;16038;47.692;9.400;2023-02-01T02:23:41;97367.81;;;2.82;98.12
28927;BME280;16038;47.692;9.400;2023-02-01T02:31:25;97372.94;;;2.83;96.90
28927;BME280;16038;47.692;9.400;2023-02-01T02:41:40;97364.59;;;2.80;97.76
28927;BME280;16038;47.692;9.400;2023-02-01T02:47:40;97365.00;;;2.73;98.14
28927;BME280;16038;47.692;9.400;2023-02-01T02:53:00;97353.38;;;2.73;96.20
28927;BME280;16038;47.692;9.400;2023-02-01T02:55:47;97351.84;;;2.66;96.35
28927;BME280;16038;47.692;9.400;2023-02-01T02:58:14;97350.56;;;2.64;96.67
28927;BME280;16038;47.692;9.400;2023-02-01T03:00:59;97359.28;;;2.75;96.15
28927;BME280;16038;47.692;9.400;2023-02-01T03:03:44;97348.25;;;2.71;96.74
28927;BME280;16038;47.692;9.400;2023-02-01T03:06:28;97353.56;;;2.62;96.91
28927;BME280;16038;47.692;9.400;2023-02-01T03:08:54;97365.19;;;2.63;96.84
28927;BME280;16038;47.692;9.400;2023-02-01T03:11:22;97358.00;;;2.72;95.99
28927;BME280;16038;47.692;9.400;2023-02-01T03:18:42;97362.78;;;2.61;96.22
28927;BME280;16038;47.692;9.400;2023-02-01T03:21:13;97366.28;;;2.62;95.75
28927;BME280;16038;47.692;9.400;2023-02-01T03:23:41;97367.78;;;2.68;96.29
28927;BME280;16038;47.692;9.400;2023-02-01T03:26:09;97379.00;;;2.75;96.35
28927;BME280;16038;47.692;9.400;2023-02-01T03:28:36;97369.69;;;2.67;96.49
28927;BME280;16038;47.692;9.400;2023-02-01T03:31:04;97364.19;;;2.73;95.71
28927;BME280;16038;47.692;9.400;2023-02-01T03:33:29;97370.69;;;2.72;96.70
28927;BME280;16038;47.692;9.400;2023-02-01T03:40:55;97352.06;;;2.70;95.96
28927;BME280;16038;47.692;9.400;2023-02-01T03:43:22;97357.88;;;2.77;94.86
28927;BME280;16038;47.692;9.400;2023-02-01T03:45:50;97357.66;;;2.74;95.34
28927;BME280;16038;47.692;9.400;2023-02-01T03:48:18;97360.69;;;2.72;95.22
28927;BME280;16038;47.692;9.400;2023-02-01T03:50:45;97355.09;;;2.68;95.97
28927;BME280;16038;47.692;9.400;2023-02-01T03:53:13;97347.47;;;2.71;95.70
28927;BME280;16038;47.692;9.400;2023-02-01T03:55:39;97345.69;;;2.94;94.18
28927;BME280;16038;47.692;9.400;2023-02-01T03:58:07;97346.97;;;2.82;94.72
28927;BME280;16038;47.692;9.400;2023-02-01T04:00:32;97349.16;;;2.80;94.68
28927;BME280;16038;47.692;9.400;2023-02-01T04:02:58;97353.78;;;2.80;95.35
28927;BME280;16038;47.692;9.400;2023-02-01T04:05:23;97358.59;;;2.69;95.62
28927;BME280;16038;47.692;9.400;2023-02-01T04:07:49;97372.78;;;2.61;96.02
28927;BME280;16038;47.692;9.400;2023-02-01T04:10:14;97374.03;;;2.68;96.06
28927;BME280;16038;47.692;9.400;2023-02-01T04:12:40;97374.59;;;2.65;96.44
28927;BME280;16038;47.692;9.400;2023-02-01T04:15:05;97383.16;;;2.86;95.86
28927;BME280;16038;47.692;9.400;2023-02-01T04:17:31;97380.72;;;2.99;94.75
28927;BME280;16038;47.692;9.400;2023-02-01T04:19:57;97386.69;;;3.01;94.28
28927;BME280;16038;47.692;9.400;2023-02-01T04:22:22;97385.66;;;2.97;94.33
28927;BME280;16038;47.692;9.400;2023-02-01T04:24:48;97394.06;;;2.95;95.05
28927;BME280;16038;47.692;9.400;2023-02-01T04:27:13;97388.16;;;2.93;95.50
28927;BME280;16038;47.692;9.400;2023-02-01T04:29:38;97386.97;;;2.99;95.13
28927;BME280;16038;47.692;9.400;2023-02-01T04:32:04;97401.88;;;2.97;95.12
28927;BME280;16038;47.692;9.400;2023-02-01T04:34:29;97407.59;;;2.95;94.15
28927;BME280;16038;47.692;9.400;2023-02-01T04:36:55;97408.22;;;2.92;94.41
28927;BME280;16038;47.692;9.400;2023-02-01T04:39:20;97417.31;;;2.82;95.25
28927;BME280;16038;47.692;9.400;2023-02-01T04:41:45;97417.81;;;2.98;94.82
28927;BME280;16038;47.692;9.400;2023-02-01T04:44:12;97416.94;;;3.03;94.42
28927;BME280;16038;47.692;9.400;2023-02-01T04:46:39;97430.44;;;2.89;94.72
28927;BME280;16038;47.692;9.400;2023-02-01T04:49:04;97430.44;;;2.89;95.32
28927;BME280;16038;47.692;9.400;2023-02-01T04:51:29;97423.44;;;3.02;95.18
28927;BME280;16038;47.692;9.400;2023-02-01T04:53:55;97426.44;;;3.00;94.60
28927;BME280;16038;47.692;9.400;2023-02-01T04:56:20;97426.41;;;2.73;96.32
28927;BME280;16038;47.692;9.400;2023-02-01T04:58:46;97426.72;;;2.71;96.93
28927;BME280;16038;47.692;9.400;2023-02-01T05:01:11;97422.78;;;2.63;97.99
28927;BME280;16038;47.692;9.400;2023-02-01T05:03:36;97412.31;;;2.43;99.27
28927;BME280;16038;47.692;9.400;2023-02-01T05:06:02;97408.69;;;2.34;99.55
28927;BME280;16038;47.692;9.400;2023-02-01T05:08:29;97404.81;;;2.40;100.00
28927;BME280;16038;47.692;9.400;2023-02-01T05:10:54;97399.97;;;2.37;100.00
28927;BME280;16038;47.692;9.400;2023-02-01T05:13:19;97394.28;;;2.38;100.00
28927;BME280;16038;47.692;9.400;2023-02-01T05:16:03;97380.06;;;2.33;100.00
28927;BME280;16038;47.692;9.400;2023-02-01T05:18:29;97384.00;;;2.21;100.00
28927;BME280;16038;47.692;9.400;2023-02-01T05:20:54;97381.00;;;2.23;100.00
28927;BME280;16038;47.692;9.400;2023-02-01T05:23:19;97374.94;;;2.31;100.00
28927;BME280;16038;47.692;9.400;2023-02-01T05:25:45;97365.25;;;2.44;100.00
28927;BME280;16038;47.692;9.400;2023-02-01T05:28:10;97352.09;;;2.23;100.00
28927;BME280;16038;47.692;9.400;2023-02-01T05:30:35;97358.59;;;2.22;100.00
28927;BME280;16038;47.692;9.400;2023-02-01T05:33:01;97361.78;;;2.24;100.00
28927;BME280;16038;47.692;9.400;2023-02-01T05:35:27;97369.09;;;2.24;100.00
28927;BME280;16038;47.692;9.400;2023-02-01T05:37:52;97372.53;;;2.29;100.00
28927;BME280;16038;47.692;9.400;2023-02-01T05:40:18;97374.34;;;2.34;100.00
28927;BME280;16038;47.692;9.400;2023-02-01T05:42:43;97386.25;;;2.33;100.00
28927;BME280;16038;47.692;9.400;2023-02-01T05:45:08;97402.47;;;2.33;100.00
28927;BME280;16038;47.692;9.400;2023-02-01T05:47:34;97413.00;;;2.35;100.00
28927;BME280;16038;47.692;9.400;2023-02-01T05:49:59;97419.91;;;2.41;99.69
28927;BME280;16038;47.692;9.400;2023-02-01T05:52:24;97413.56;;;2.32;100.00
28927;BME280;16038;47.692;9.400;2023-02-01T05:54:50;97416.50;;;2.35;100.00
28927;BME280;16038;47.692;9.400;2023-02-01T05:57:15;97411.31;;;2.39;100.00
28927;BME280;16038;47.692;9.400;2023-02-01T05:59:40;97411.47;;;2.28;100.00
28927;BME280;16038;47.692;9.400;2023-02-01T06:02:09;97404.69;;;2.31;99.78
28927;BME280;16038;47.692;9.400;2023-02-01T06:04:35;97394.78;;;2.40;99.64
28927;BME280;16038;47.692;9.400;2023-02-01T06:07:00;97385.06;;;2.39;99.44
28927;BME280;16038;47.692;9.400;2023-02-01T06:09:25;97384.84;;;2.36;99.63
28927;BME280;16038;47.692;9.400;2023-02-01T06:11:51;97407.50;;;2.40;99.50
28927;BME280;16038;47.692;9.400;2023-02-01T06:14:16;97403.56;;;2.32;99.86
28927;BME280;16038;47.692;9.400;2023-02-01T06:16:41;97401.06;;;2.36;100.00
28927;BME280;16038;47.692;9.400;2023-02-01T06:19:07;97408.38;;;2.35;100.00
28927;BME280;16038;47.692;9.400;2023-02-01T06:21:34;97403.97;;;2.39;100.00
28927;BME280;16038;47.692;9.400;2023-02-01T06:24:00;97409.50;;;2.34;100.00
28927;BME280;16038;47.692;9.400;2023-02-01T06:26:25;97421.31;;;2.38;100.00
28927;BME280;16038;47.692;9.400;2023-02-01T06:28:51;97423.53;;;2.50;100.00
28927;BME280;16038;47.692;9.400;2023-02-01T06:31:16;97419.47;;;2.53;100.00
28927;BME280;16038;47.692;9.400;2023-02-01T06:33:41;97432.63;;;2.73;98.71
28927;BME280;16038;47.692;9.400;2023-02-01T06:36:07;97440.72;;;2.73;98.54
28927;BME280;16038;47.692;9.400;2023-02-01T06:38:34;97460.66;;;2.63;98.13
28927;BME280;16038;47.692;9.400;2023-02-01T06:41:00;97460.09;;;2.80;98.47
28927;BME280;16038;47.692;9.400;2023-02-01T06:43:26;97457.75;;;2.74;98.06
28927;BME280;16038;47.692;9.400;2023-02-01T06:45:51;97466.50;;;2.71;98.97
28927;BME280;16038;47.692;9.400;2023-02-01T06:48:17;97465.13;;;2.54;99.29
28927;BME280;16038;47.692;9.400;2023-02-01T06:50:42;97463.47;;;2.39;100.00
28927;BME280;16038;47.692;9.400;2023-02-01T06:53:07;97465.28;;;2.44;100.00
28927;BME280;16038;47.692;9.400;2023-02-01T06:55:33;97466.31;;;2.48;100.00
28927;BME280;16038;47.692;9.400;2023-02-01T06:57:58;97472.63;;;2.43;100.00
28927;BME280;16038;47.692;9.400;2023-02-01T07:00:23;97471.81;;;2.76;100.00
28927;BME280;16038;47.692;9.400;2023-02-01T07:02:49;97472.09;;;2.74;99.02
28927;BME280;16038;47.692;9.400;2023-02-01T07:05:15;97474.09;;;2.68;99.16
28927;BME280;16038;47.692;9.400;2023-02-01T07:07:40;97473.38;;;2.63;99.18
28927;BME280;16038;47.692;9.400;2023-02-01T07:10:06;97484.50;;;2.61;99.08
28927;BME280;16038;47.692;9.400;2023-02-01T07:12:31;97481.91;;;2.70;98.50
28927;BME280;16038;47.692;9.400;2023-02-01T07:14:56;97479.59;;;2.63;98.16
28927;BME280;16038;47.692;9.400;2023-02-01T07:17:22;97477.00;;;2.72;98.58
28927;BME280;16038;47.692;9.400;2023-02-01T07:19:47;97465.16;;;2.68;97.65
28927;BME280;16038;47.692;9.400;2023-02-01T07:22:13;97459.53;;;2.64;98.80
28927;BME280;16038;47.692;9.400;2023-02-01T07:24:40;97470.75;;;2.58;98.39
28927;BME280;16038;47.692;9.400;2023-02-01T07:27:06;97474.47;;;2.62;98.89
28927;BME280;16038;47.692;9.400;2023-02-01T07:29:31;97471.41;;;2.49;99.38
28927;BME280;16038;47.692;9.400;2023-02-01T07:31:56;97469.41;;;2.41;99.60
28927;BME280;16038;47.692;9.400;2023-02-01T07:34:22;97470.03;;;2.52;99.85
28927;BME280;16038;47.692;9.400;2023-02-01T07:36:47;97475.19;;;2.67;98.69
28927;BME280;16038;47.692;9.400;2023-02-01T07:39:12;97465.84;;;2.60;98.80
28927;BME280;16038;47.692;9.400;2023-02-01T07:41:38;97465.28;;;2.63;99.85
28927;BME280;16038;47.692;9.400;2023-02-01T07:44:03;97465.28;;;2.63;99.85
28927;BME280;16038;47.692;9.400;2023-02-01T07:46:28;97465.44;;;2.53;100.00
28927;BME280;16038;47.692;9.400;2023-02-01T07:48:53;97471.94;;;2.52;100.00
28927;BME280;16038;47.692;9.400;2023-02-01T07:51:19;97469.66;;;2.59;100.00
28927;BME280;16038;47.692;9.400;2023-02-01T07:53:44;97469.56;;;2.64;99.82
28927;BME280;16038;47.692;9.400;2023-02-01T07:56:11;97483.00;;;2.69;99.70
28927;BME280;16038;47.692;9.400;2023-02-01T07:58:37;97468.72;;;2.49;100.00
28927;BME280;16038;47.692;9.400;2023-02-01T08:01:02;97467.41;;;2.47;100.00
28927;BME280;16038;47.692;9.400;2023-02-01T08:03:50;97467.03;;;2.54;100.00
28927;BME280;16038;47.692;9.400;2023-02-01T08:06:16;97445.00;;;2.60;100.00
28927;BME280;16038;47.692;9.400;2023-02-01T08:08:42;97429.84;;;2.45;100.00
28927;BME280;16038;47.692;9.400;2023-02-01T08:11:10;97432.13;;;2.38;100.00
28927;BME280;16038;47.692;9.400;2023-02-01T08:13:35;97432.34;;;2.42;100.00
28927;BME280;16038;47.692;9.400;2023-02-01T08:16:02;97456.91;;;2.45;100.00
28927;BME280;16038;47.692;9.400;2023-02-01T08:18:28;97454.78;;;2.42;100.00
28927;BME280;16038;47.692;9.400;2023-02-01T08:20:54;97453.84;;;2.33;100.00
28927;BME280;16038;47.692;9.400;2023-02-01T08:23:19;97470.28;;;2.37;100.00
28927;BME280;16038;47.692;9.400;2023-02-01T08:25:45;97467.56;;;2.37;100.00
28927;BME280;16038;47.692;9.400;2023-02-01T08:28:11;97462.44;;;2.35;100.00
28927;BME280;16038;47.692;9.400;2023-02-01T08:30:37;97467.41;;;2.47;100.00
28927;BME280;16038;47.692;9.400;2023-02-01T08:33:04;97463.22;;;2.55;100.00
28927;BME280;16038;47.692;9.400;2023-02-01T08:35:31;97459.81;;;2.49;100.00
28927;BME280;16038;47.692;9.400;2023-02-01T08:37:56;97474.19;;;2.63;100.00
28927;BME280;16038;47.692;9.400;2023-02-01T08:40:21;97466.91;;;2.78;100.00
28927;BME280;16038;47.692;9.400;2023-02-01T08:42:46;97468.16;;;2.66;100.00
28927;BME280;16038;47.692;9.400;2023-02-01T08:45:23;97482.22;;;2.82;100.00
28927;BME280;16038;47.692;9.400;2023-02-01T08:47:50;97465.66;;;2.70;100.00
28927;BME280;16038;47.692;9.400;2023-02-01T08:50:16;97483.50;;;2.71;100.00
28927;BME280;16038;47.692;9.400;2023-02-01T08:52:41;97485.44;;;2.84;100.00
28927;BME280;16038;47.692;9.400;2023-02-01T08:55:07;97476.81;;;2.82;100.00
28927;BME280;16038;47.692;9.400;2023-02-01T08:57:33;97476.38;;;2.94;100.00
28927;BME280;16038;47.692;9.400;2023-02-01T08:59:58;97476.16;;;2.91;100.00
28927;BME280;16038;47.692;9.400;2023-02-01T09:02:24;97478.69;;;3.01;100.00
28927;BME280;16038;47.692;9.400;2023-02-01T09:04:49;97472.53;;;2.95;100.00
28927;BME280;16038;47.692;9.400;2023-02-01T09:07:15;97485.78;;;2.97;100.00
28927;BME280;16038;47.692;9.400;2023-02-01T09:09:41;97489.75;;;2.85;100.00
28927;BME280;16038;47.692;9.400;2023-02-01T09:12:07;97502.50;;;2.99;100.00
28927;BME280;16038;47.692;9.400;2023-02-01T09:14:32;97504.75;;;3.11;100.00
28927;BME280;16038;47.692;9.400;2023-02-01T09:16:58;97499.63;;;3.09;100.00
28927;BME280;16038;47.692;9.400;2023-02-01T09:19:23;97508.03;;;3.08;100.00
28927;BME280;16038;47.692;9.400;2023-02-01T09:21:49;97501.72;;;2.98;100.00
28927;BME280;16038;47.692;9.400;2023-02-01T09:24:14;97497.84;;;3.04;100.00
28927;BME280;16038;47.692;9.400;2023-02-01T09:26:39;97498.13;;;3.03;100.00
28927;BME280;16038;47.692;9.400;2023-02-01T09:29:05;97493.13;;;3.10;100.00
28927;BME280;16038;47.692;9.400;2023-02-01T09:31:35;97479.81;;;3.14;100.00
28927;BME280;16038;47.692;9.400;2023-02-01T09:34:00;97483.91;;;3.11;100.00
28927;BME280;16038;47.692;9.400;2023-02-01T09:36:25;97482.91;;;3.07;100.00
28927;BME280;16038;47.692;9.400;2023-02-01T09:38:51;97489.72;;;3.18;100.00
28927;BME280;16038;47.692;9.400;2023-02-01T09:44:11;97492.50;;;3.13;100.00
28927;BME280;16038;47.692;9.400;2023-02-01T09:46:39;97485.72;;;3.16;100.00
28927;BME280;16038;47.692;9.400;2023-02-01T09:49:08;97490.84;;;3.17;100.00
28927;BME280;16038;47.692;9.400;2023-02-01T09:51:37;97498.47;;;3.15;100.00
28927;BME280;16038;47.692;9.400;2023-02-01T09:54:04;97505.38;;;3.21;100.00
28927;BME280;16038;47.692;9.400;2023-02-01T09:57:14;97498.53;;;3.24;100.00
28927;BME280;16038;47.692;9.400;2023-02-01T10:01:48;97503.59;;;3.44;100.00
28927;BME280;16038;47.692;9.400;2023-02-01T10:04:14;97498.38;;;3.48;100.00
28927;BME280;16038;47.692;9.400;2023-02-01T10:11:44;97507.00;;;3.64;100.00
28927;BME280;16038;47.692;9.400;2023-02-01T10:17:28;97505.09;;;3.64;100.00
28927;BME280;16038;47.692;9.400;2023-02-01T10:19:43;97482.34;;;3.66;100.00
28927;BME280;16038;47.692;9.400;2023-02-01T10:22:10;97478.41;;;3.72;100.00
28927;BME280;16038;47.692;9.400;2023-02-01T10:24:41;97475.19;;;3.70;100.00
28927;BME280;16038;47.692;9.400;2023-02-01T10:27:16;97474.47;;;3.78;100.00
28927;BME280;16038;47.692;9.400;2023-02-01T10:29:43;97478.69;;;3.84;100.00
28927;BME280;16038;47.692;9.400;2023-02-01T10:32:14;97457.41;;;3.91;100.00
28927;BME280;16038;47.692;9.400;2023-02-01T10:37:40;97440.00;;;4.06;100.00
28927;BME280;16038;47.692;9.400;2023-02-01T10:40:16;97449.66;;;3.98;100.00
28927;BME280;16038;47.692;9.400;2023-02-01T10:42:42;97464.19;;;4.02;100.00
28927;BME280;16038;47.692;9.400;2023-02-01T10:45:16;97460.69;;;4.02;99.77
28927;BME280;16038;47.692;9.400;2023-02-01T10:47:42;97468.72;;;4.07;100.00
28927;BME280;16038;47.692;9.400;2023-02-01T10:57:50;97485.50;;;4.32;97.65
28927;BME280;16038;47.692;9.400;2023-02-01T11:00:20;97487.81;;;4.25;97.30
28927;BME280;16038;47.692;9.400;2023-02-01T11:02:46;97483.53;;;4.46;97.40
28927;BME280;16038;47.692;9.400;2023-02-01T11:05:11;97487.38;;;4.45;96.74
28927;BME280;16038;47.692;9.400;2023-02-01T11:07:37;97481.28;;;4.39;96.58
28927;BME280;16038;47.692;9.400;2023-02-01T11:10:04;97469.13;;;4.59;96.13
28927;BME280;16038;47.692;9.400;2023-02-01T11:12:34;97457.56;;;4.76;95.25
28927;BME280;16038;47.692;9.400;2023-02-01T11:15:21;97460.72;;;4.70;93.90
28927;BME280;16038;47.692;9.400;2023-02-01T11:17:46;97466.09;;;4.84;93.61
28927;BME280;16038;47.692;9.400;2023-02-01T11:20:17;97464.66;;;5.17;91.93
28927;BME280;16038;47.692;9.400;2023-02-01T11:22:52;97443.03;;;5.04;90.71
28927;BME280;16038;47.692;9.400;2023-02-01T11:25:19;97466.69;;;5.03;91.95
28927;BME280;16038;47.692;9.400;2023-02-01T11:27:44;97453.75;;;5.09;91.32
28927;BME280;16038;47.692;9.400;2023-02-01T11:30:14;97449.06;;;4.92;91.53
28927;BME280;16038;47.692;9.400;2023-02-01T11:32:42;97447.47;;;4.68;92.32
28927;BME280;16038;47.692;9.400;2023-02-01T11:35:07;97416.94;;;4.63;92.28
28927;BME280;16038;47.692;9.400;2023-02-01T11:37:37;97408.59;;;4.82;90.91
28927;BME280;16038;47.692;9.400;2023-02-01T11:40:22;97419.72;;;5.03;89.24
28927;BME280;16038;47.692;9.400;2023-02-01T11:43:07;97436.06;;;5.11;88.73
28927;BME280;16038;47.692;9.400;2023-02-01T11:45:33;97439.66;;;4.98;89.42
28927;BME280;16038;47.692;9.400;2023-02-01T11:48:00;97442.31;;;4.89;89.08
28927;BME280;16038;47.692;9.400;2023-02-01T12:19:29;97402.09;;;6.06;83.53
28927;BME280;16038;47.692;9.400;2023-02-01T12:27:24;97379.53;;;6.06;82.56
28927;BME280;16038;47.692;9.400;2023-02-01T12:35:33;97358.41;;;6.29;80.03
28927;BME280;16038;47.692;9.400;2023-02-01T12:45:56;97332.94;;;7.19;75.04
28927;BME280;16038;47.692;9.400;2023-02-01T12:48:40;97329.16;;;7.33;72.86
28927;BME280;16038;47.692;9.400;2023-02-01T12:51:15;97332.94;;;7.70;72.29
28927;BME280;16038;47.692;9.400;2023-02-01T12:56:34;97328.66;;;6.71;74.70
28927;BME280;16038;47.692;9.400;2023-02-01T12:58:56;97338.47;;;6.63;74.20
28927;BME280;16038;47.692;9.400;2023-02-01T13:01:43;97340.94;;;6.30;74.52
28927;BME280;16038;47.692;9.400;2023-02-01T13:06:41;97328.31;;;5.90;77.65
28927;BME280;16038;47.692;9.400;2023-02-01T13:11:43;97332.47;;;5.88;78.10
28927;BME280;16038;47.692;9.400;2023-02-01T13:16:51;97327.19;;;5.48;80.94
28927;BME280;16038;47.692;9.400;2023-02-01T13:21:44;97324.09;;;5.23;84.00
28927;BME280;16038;47.692;9.400;2023-02-01T13:26:45;97325.22;;;5.13;85.29
28927;BME280;16038;47.692;9.400;2023-02-01T13:29:10;97323.75;;;5.07;85.53
28927;BME280;16038;47.692;9.400;2023-02-01T13:37:05;97306.03;;;5.27;85.94
28927;BME280;16038;47.692;9.400;2023-02-01T13:42:21;97312.06;;;4.98;88.95
28927;BME280;16038;47.692;9.400;2023-02-01T13:47:31;97298.59;;;4.75;86.46
28927;BME280;16038;47.692;9.400;2023-02-01T13:49:59;97297.41;;;4.68;83.97
28927;BME280;16038;47.692;9.400;2023-02-01T13:52:51;97310.06;;;4.72;82.57
28927;BME280;16038;47.692;9.400;2023-02-01T13:57:46;97330.81;;;4.68;81.80
28927;BME280;16038;47.692;9.400;2023-02-01T14:08:11;97334.66;;;4.76;78.88
28927;BME280;16038;47.692;9.400;2023-02-01T14:13:51;97320.69;;;4.60;79.73
28927;BME280;16038;47.692;9.400;2023-02-01T14:23:43;97354.53;;;4.63;79.63
28927;BME280;16038;47.692;9.400;2023-02-01T14:26:14;97352.50;;;4.68;79.55
28927;BME280;16038;47.692;9.400;2023-02-01T14:28:41;97361.28;;;4.65;79.77
28927;BME280;16038;47.692;9.400;2023-02-01T14:31:15;97363.38;;;4.68;79.74
28927;BME280;16038;47.692;9.400;2023-02-01T14:33:42;97353.75;;;4.62;78.86
28927;BME280;16038;47.692;9.400;2023-02-01T14:36:09;97359.78;;;4.59;78.68
28927;BME280;16038;47.692;9.400;2023-02-01T14:38:36;97365.25;;;4.68;78.33
28927;BME280;16038;47.692;9.400;2023-02-01T14:41:13;97370.16;;;4.57;77.36
28927;BME280;16038;47.692;9.400;2023-02-01T14:43:48;97360.28;;;4.61;77.64
28927;BME280;16038;47.692;9.400;2023-02-01T14:46:14;97360.13;;;4.57;78.45
28927;BME280;16038;47.692;9.400;2023-02-01T14:48:41;97357.59;;;4.61;78.17
28927;BME280;16038;47.692;9.400;2023-02-01T14:51:07;97358.81;;;4.55;77.31
28927;BME280;16038;47.692;9.400;2023-02-01T14:53:34;97361.69;;;4.58;76.65
28927;BME280;16038;47.692;9.400;2023-02-01T14:56:05;97357.84;;;4.51;76.16
28927;BME280;16038;47.692;9.400;2023-02-01T15:01:01;97355.66;;;4.62;75.68
28927;BME280;16038;47.692;9.400;2023-02-01T15:05:56;97357.72;;;4.56;74.21
28927;BME280;16038;47.692;9.400;2023-02-01T15:08:36;97343.84;;;4.57;73.91
28927;BME280;16038;47.692;9.400;2023-02-01T15:11:06;97357.41;;;4.57;73.68
28927;BME280;16038;47.692;9.400;2023-02-01T15:13:32;97357.53;;;4.52;74.15
28927;BME280;16038;47.692;9.400;2023-02-01T15:18:25;97337.91;;;4.55;74.09
28927;BME280;16038;47.692;9.400;2023-02-01T15:20:58;97350.97;;;4.53;74.58
28927;BME280;16038;47.692;9.400;2023-02-01T15:23:23;97348.25;;;4.53;74.44
28927;BME280;16038;47.692;9.400;2023-02-01T15:25:48;97350.50;;;4.51;74.15
28927;BME280;16038;47.692;9.400;2023-02-01T15:28:14;97347.97;;;4.55;74.31
28927;BME280;16038;47.692;9.400;2023-02-01T15:30:40;97360.91;;;4.58;74.14
28927;BME280;16038;47.692;9.400;2023-02-01T15:33:16;97355.63;;;4.53;74.10
28927;BME280;16038;47.692;9.400;2023-02-01T15:35:49;97357.03;;;4.50;75.01
28927;BME280;16038;47.692;9.400;2023-02-01T15:43:39;97374.72;;;4.48;75.82
28927;BME280;16038;47.692;9.400;2023-02-01T15:46:10;97386.53;;;4.43;76.91
28927;BME280;16038;47.692;9.400;2023-02-01T15:48:38;97379.19;;;4.44;77.10
28927;BME280;16038;47.692;9.400;2023-02-01T15:51:04;97398.78;;;4.40;77.63
28927;BME280;16038;47.692;9.400;2023-02-01T15:53:29;97399.09;;;4.39;77.87
28927;BME280;16038;47.692;9.400;2023-02-01T15:55:57;97406.41;;;4.38;78.22
28927;BME280;16038;47.692;9.400;2023-02-01T15:58:24;97415.47;;;4.34;78.84